Time;durP1;ratioP1;P1;durP2;ratioP2;P2;SDS_P1;SDS_P2;PMS_P1;PMS_P2;Temp;Humidity;BMP_temperature;BMP_pressure;BME280_temperature;BME280_humidity;BME280_pressure;Samples;Min_cycle;Max_cycle;Signal;HPM_P1;HPM_P2
2022/04/10 00:00:55;;;;;;;3.63;1.08;;;15.90;54.80;;;;;;5002305;28;20045;-74
2022/04/10 00:03:22;;;;;;;5.57;1.33;;;15.90;54.80;;;;;;5015434;28;20353;-76
2022/04/10 00:05:49;;;;;;;4.90;1.20;;;15.90;54.80;;;;;;5016576;28;20465;-76
2022/04/10 00:08:15;;;;;;;5.20;1.48;;;15.90;54.80;;;;;;5016832;28;20056;-75
2022/04/10 00:10:41;;;;;;;5.03;1.30;;;15.90;54.80;;;;;;4999595;28;20128;-74
2022/04/10 00:13:07;;;;;;;3.40;0.98;;;15.90;54.90;;;;;;5016842;28;20418;-75
2022/04/10 00:15:34;;;;;;;5.35;1.33;;;15.90;54.80;;;;;;5016969;28;20369;-76
2022/04/10 00:17:59;;;;;;;4.25;1.20;;;15.90;54.80;;;;;;5016602;28;20046;-75
2022/04/10 00:20:25;;;;;;;4.35;1.05;;;15.90;54.80;;;;;;4999315;28;20399;-76
2022/04/10 00:22:51;;;;;;;4.45;0.93;;;15.90;54.90;;;;;;4998979;28;20057;-75
2022/04/10 00:25:18;;;;;;;6.72;1.45;;;15.90;54.80;;;;;;4999019;28;20092;-76
2022/04/10 00:27:44;;;;;;;5.68;1.20;;;15.90;54.80;;;;;;5016228;28;20038;-77
2022/04/10 00:30:13;;;;;;;2.38;0.90;;;15.90;54.80;;;;;;5016291;28;20361;-74
2022/04/10 00:32:39;;;;;;;4.80;0.90;;;15.80;54.70;;;;;;4995263;28;20537;-75
2022/04/10 00:35:06;;;;;;;5.88;1.08;;;15.80;54.70;;;;;;4979432;28;20047;-74
2022/04/10 00:37:33;;;;;;;4.45;0.80;;;15.80;54.70;;;;;;4979254;28;20046;-75
2022/04/10 00:39:59;;;;;;;3.65;1.10;;;15.80;54.70;;;;;;4996495;28;20437;-75
2022/04/10 00:42:32;;;;;;;4.45;1.38;;;15.80;54.70;;;;;;4996311;28;20042;-77
2022/04/10 00:44:57;;;;;;;2.63;0.93;;;15.80;54.60;;;;;;4996408;28;20077;-76
2022/04/10 00:47:23;;;;;;;5.93;1.25;;;15.80;54.70;;;;;;4996241;28;20438;-76
2022/04/10 00:49:49;;;;;;;4.00;1.27;;;15.80;54.70;;;;;;4996518;28;20434;-75
2022/04/10 00:52:15;;;;;;;11.30;1.55;;;15.80;54.70;;;;;;4996183;28;20125;-73
2022/04/10 00:54:41;;;;;;;4.22;0.98;;;15.80;54.70;;;;;;4996186;28;20070;-74
2022/04/10 00:57:07;;;;;;;4.80;1.23;;;15.70;54.70;;;;;;4978857;28;20105;-75
2022/04/10 00:59:32;;;;;;;4.80;1.40;;;15.70;54.90;;;;;;4996868;28;20046;-73
2022/04/10 01:01:58;;;;;;;5.28;1.35;;;15.60;55.10;;;;;;4995925;28;20346;-76
2022/04/10 01:04:25;;;;;;;7.22;1.77;;;15.60;55.30;;;;;;4996350;28;20137;-75
2022/04/10 01:06:51;;;;;;;6.40;1.70;;;15.60;55.40;;;;;;4979031;28;20061;-75
2022/04/10 01:09:20;;;;;;;5.35;1.42;;;15.50;55.50;;;;;;4979794;28;20117;-75
2022/04/10 01:11:46;;;;;;;6.60;1.92;;;15.50;55.60;;;;;;4995797;28;20061;-74
2022/04/10 01:14:13;;;;;;;7.22;1.88;;;15.40;55.70;;;;;;4996143;28;20366;-75
2022/04/10 01:16:39;;;;;;;6.13;2.05;;;15.40;56.00;;;;;;4978632;28;20126;-76
2022/04/10 01:19:05;;;;;;;5.03;1.05;;;15.40;56.20;;;;;;4996169;28;20050;-73
2022/04/10 01:21:36;;;;;;;8.27;1.70;;;15.30;56.50;;;;;;4996244;28;20101;-75
2022/04/10 01:24:02;;;;;;;9.05;1.67;;;15.30;56.50;;;;;;4995639;28;20548;-74
2022/04/10 01:26:29;;;;;;;5.43;0.90;;;15.20;56.50;;;;;;4995599;28;20085;-73
2022/04/10 01:29:06;;;;;;;8.18;1.15;;;15.20;56.70;;;;;;4995914;28;20053;-74
2022/04/10 01:31:34;;;;;;;4.43;1.17;;;15.20;56.80;;;;;;4995425;28;20054;-74
2022/04/10 01:34:05;;;;;;;6.97;1.20;;;15.10;56.80;;;;;;4995688;28;20456;-76
2022/04/10 01:36:33;;;;;;;6.95;1.15;;;15.10;56.70;;;;;;4995637;28;20046;-77
2022/04/10 01:39:00;;;;;;;5.88;1.50;;;15.00;56.60;;;;;;4978946;28;20046;-78
2022/04/10 01:41:27;;;;;;;12.35;2.22;;;15.00;56.50;;;;;;4979038;28;20526;-74
2022/04/10 01:43:54;;;;;;;4.97;1.08;;;14.90;56.70;;;;;;4995639;28;20485;-74
2022/04/10 01:46:22;;;;;;;6.13;1.42;;;14.90;56.70;;;;;;4978643;28;20465;-75
2022/04/10 01:48:48;;;;;;;6.32;1.13;;;14.90;56.80;;;;;;4978468;28;20434;-75
2022/04/10 01:51:13;;;;;;;7.30;1.20;;;14.90;56.90;;;;;;4995678;28;20121;-74
2022/04/10 01:53:39;;;;;;;3.53;0.80;;;14.90;56.80;;;;;;4995837;28;20453;-74
2022/04/10 01:56:07;;;;;;;7.25;1.45;;;14.90;57.00;;;;;;5010594;28;20042;-74
2022/04/10 01:58:35;;;;;;;6.80;1.48;;;14.90;56.90;;;;;;5017615;28;20042;-74
2022/04/10 02:01:02;;;;;;;6.55;1.10;;;14.80;56.80;;;;;;5015743;28;20354;-75
2022/04/10 02:03:28;;;;;;;5.63;0.95;;;14.80;56.90;;;;;;4999375;28;20061;-74
2022/04/10 02:05:55;;;;;;;5.90;1.05;;;14.80;56.80;;;;;;4999656;28;20042;-73
2022/04/10 02:08:22;;;;;;;7.05;1.17;;;14.70;56.70;;;;;;4999528;28;20405;-73
2022/04/10 02:10:47;;;;;;;4.55;1.17;;;14.70;57.00;;;;;;4998892;28;20203;-75
2022/04/10 02:13:13;;;;;;;5.20;1.00;;;14.70;57.10;;;;;;4998874;28;20467;-74
2022/04/10 02:15:40;;;;;;;4.03;1.30;;;14.70;57.10;;;;;;4999606;28;20096;-75
2022/04/10 02:18:06;;;;;;;5.72;1.13;;;14.70;57.10;;;;;;4999224;28;20042;-74
2022/04/10 02:20:32;;;;;;;3.97;0.80;;;14.70;57.00;;;;;;4999248;28;20042;-74
2022/04/10 02:22:59;;;;;;;4.55;0.70;;;14.60;56.90;;;;;;4999310;28;20046;-74
2022/04/10 02:25:25;;;;;;;2.80;0.55;;;14.60;57.00;;;;;;4979328;28;20054;-75
2022/04/10 02:27:50;;;;;;;5.70;1.40;;;14.60;57.00;;;;;;4998807;28;20362;-74
2022/04/10 02:30:18;;;;;;;3.95;1.30;;;14.60;56.90;;;;;;5003306;28;20121;-74
2022/04/10 02:32:44;;;;;;;4.15;0.93;;;14.60;57.00;;;;;;5018300;28;20050;-75
2022/04/10 02:35:10;;;;;;;3.28;1.17;;;14.60;56.80;;;;;;5018349;28;20049;-77
2022/04/10 02:37:36;;;;;;;3.08;0.98;;;14.60;57.00;;;;;;5018630;28;20433;-74
2022/04/10 02:40:06;;;;;;;4.97;0.60;;;14.50;56.60;;;;;;5001409;28;20112;-75
2022/04/10 02:42:34;;;;;;;2.90;0.60;;;14.50;56.30;;;;;;5019134;28;20120;-75
2022/04/10 02:45:03;;;;;;;3.47;0.52;;;14.50;56.40;;;;;;5018020;28;20485;-74
2022/04/10 02:47:32;;;;;;;2.92;0.68;;;14.40;56.10;;;;;;5018623;28;20077;-75
2022/04/10 02:49:58;;;;;;;3.45;0.93;;;14.40;56.10;;;;;;5018182;28;20480;-75
2022/04/10 02:52:23;;;;;;;3.33;0.68;;;14.30;56.30;;;;;;5000708;28;20082;-75
2022/04/10 02:54:49;;;;;;;2.83;0.57;;;14.30;56.50;;;;;;5001170;28;20049;-74
2022/04/10 02:57:15;;;;;;;2.47;0.60;;;14.30;56.50;;;;;;5000943;28;20353;-75
2022/04/10 02:59:41;;;;;;;1.92;0.70;;;14.30;56.70;;;;;;5018557;28;20062;-75
2022/04/10 03:02:06;;;;;;;3.67;0.75;;;14.20;56.40;;;;;;4998347;28;20485;-75
2022/04/10 03:04:32;;;;;;;2.60;0.60;;;14.20;56.80;;;;;;4981532;28;20061;-73
2022/04/10 03:06:58;;;;;;;1.70;0.30;;;14.20;56.90;;;;;;4998207;28;20121;-75
2022/04/10 03:09:24;;;;;;;2.92;0.77;;;14.20;56.90;;;;;;4980848;28;20046;-76
2022/04/10 03:11:49;;;;;;;1.67;0.30;;;14.20;56.80;;;;;;4998012;28;20042;-74
2022/04/10 03:14:15;;;;;;;2.70;0.68;;;14.20;56.90;;;;;;4997758;28;20050;-75
2022/04/10 03:16:42;;;;;;;3.53;0.50;;;14.20;56.80;;;;;;4998202;28;20043;-76
2022/04/10 03:19:08;;;;;;;2.78;0.57;;;14.10;56.70;;;;;;4998496;28;20354;-74
2022/04/10 03:21:34;;;;;;;1.98;0.40;;;14.20;56.80;;;;;;4998205;28;20050;-74
2022/04/10 03:24:01;;;;;;;4.07;0.73;;;14.10;56.80;;;;;;5013513;28;20050;-75
2022/04/10 03:26:27;;;;;;;2.45;0.75;;;14.10;57.00;;;;;;4998711;28;20081;-76
2022/04/10 03:28:53;;;;;;;4.45;0.50;;;14.10;56.90;;;;;;4981275;28;20133;-76
2022/04/10 03:31:20;;;;;;;4.03;0.75;;;14.10;57.00;;;;;;5011861;28;20050;-74
2022/04/10 03:33:46;;;;;;;5.15;0.70;;;14.10;57.00;;;;;;5016704;28;20058;-73
2022/04/10 03:36:13;;;;;;;1.10;0.38;;;14.10;57.00;;;;;;5017109;28;20042;-75
2022/04/10 03:38:39;;;;;;;4.97;0.60;;;14.10;57.10;;;;;;5017507;28;20042;-74
2022/04/10 03:41:04;;;;;;;3.33;0.43;;;14.00;57.10;;;;;;5017644;28;20125;-73
2022/04/10 03:43:32;;;;;;;1.55;0.50;;;14.00;56.90;;;;;;4983645;28;20434;-76
2022/04/10 03:45:58;;;;;;;1.58;0.88;;;14.00;56.90;;;;;;5017396;28;20066;-73
2022/04/10 03:48:24;;;;;;;3.20;0.73;;;14.00;57.20;;;;;;5017168;28;20093;-75
2022/04/10 03:50:49;;;;;;;2.17;0.45;;;14.00;57.10;;;;;;5017809;28;20441;-75
2022/04/10 03:53:15;;;;;;;3.50;0.43;;;14.00;57.10;;;;;;4999839;28;20128;-75
2022/04/10 03:55:41;;;;;;;6.28;0.95;;;14.00;57.10;;;;;;5016892;28;20113;-73
2022/04/10 03:58:07;;;;;;;3.58;0.70;;;14.00;57.00;;;;;;5016830;28;20462;-76
2022/04/10 04:00:32;;;;;;;2.95;0.50;;;14.00;57.00;;;;;;5008730;28;20050;-75
2022/04/10 04:02:58;;;;;;;3.88;0.80;;;14.00;57.10;;;;;;4994384;28;20064;-77
2022/04/10 04:05:24;;;;;;;2.67;0.93;;;13.90;56.90;;;;;;4980128;28;20051;-75
2022/04/10 04:07:50;;;;;;;3.10;0.50;;;13.90;57.00;;;;;;4997237;28;20038;-73
2022/04/10 04:10:15;;;;;;;2.85;0.60;;;13.90;56.90;;;;;;4997511;28;20052;-74
2022/04/10 04:12:41;;;;;;;4.38;0.60;;;13.90;57.20;;;;;;4997336;28;20061;-75
2022/04/10 04:15:07;;;;;;;3.75;0.85;;;13.90;57.10;;;;;;4979782;28;20132;-75
2022/04/10 04:17:33;;;;;;;3.13;0.70;;;13.90;57.30;;;;;;4977274;28;20066;-74
2022/04/10 04:19:59;;;;;;;1.60;0.32;;;14.00;57.30;;;;;;4995746;28;20201;-75
2022/04/10 04:22:24;;;;;;;5.32;0.88;;;13.90;57.30;;;;;;4996886;28;20046;-76
2022/04/10 04:24:50;;;;;;;2.83;0.65;;;13.90;57.30;;;;;;4997422;28;20442;-75
2022/04/10 04:27:16;;;;;;;3.58;0.85;;;13.90;57.50;;;;;;4980308;28;20125;-74
2022/04/10 04:29:41;;;;;;;4.82;0.70;;;13.90;57.30;;;;;;4996329;28;20046;-74
2022/04/10 04:32:07;;;;;;;3.78;0.52;;;13.90;57.30;;;;;;4997291;28;20046;-75
2022/04/10 04:34:33;;;;;;;3.53;0.70;;;13.90;57.40;;;;;;4997053;28;20072;-76
2022/04/10 04:36:59;;;;;;;3.65;0.65;;;13.80;57.30;;;;;;4996828;28;20050;-75
2022/04/10 04:39:25;;;;;;;3.38;0.93;;;13.80;57.50;;;;;;4997302;28;20042;-75
2022/04/10 04:41:50;;;;;;;3.47;0.70;;;13.80;57.40;;;;;;4997018;28;20062;-76
2022/04/10 04:44:16;;;;;;;3.72;0.70;;;13.70;57.30;;;;;;4996547;28;20042;-77
2022/04/10 04:46:42;;;;;;;4.25;0.50;;;13.70;57.30;;;;;;4996353;28;20457;-74
2022/04/10 04:49:08;;;;;;;1.85;0.60;;;13.70;57.30;;;;;;4979002;28;20062;-74
2022/04/10 04:51:36;;;;;;;2.58;0.60;;;13.80;57.60;;;;;;4996539;28;20046;-74
2022/04/10 04:54:03;;;;;;;4.22;0.50;;;13.70;57.50;;;;;;4979108;28;20062;-74
2022/04/10 04:56:29;;;;;;;3.45;0.57;;;13.70;57.70;;;;;;4993267;28;20098;-75
2022/04/10 04:58:55;;;;;;;3.05;0.60;;;13.70;57.80;;;;;;4979320;28;20402;-75
2022/04/10 05:01:21;;;;;;;3.13;0.60;;;13.70;57.70;;;;;;4979080;28;20093;-76
2022/04/10 05:03:47;;;;;;;2.38;0.45;;;13.70;57.60;;;;;;4996981;28;20070;-75
2022/04/10 05:06:12;;;;;;;4.30;0.70;;;13.60;57.70;;;;;;4979196;28;20046;-75
2022/04/10 05:08:39;;;;;;;2.42;0.80;;;13.70;57.70;;;;;;4979437;28;20046;-77
2022/04/10 05:11:08;;;;;;;1.65;0.50;;;13.70;57.90;;;;;;4995986;28;20128;-74
2022/04/10 05:13:35;;;;;;;2.40;0.40;;;13.70;57.90;;;;;;4995949;28;20057;-73
2022/04/10 05:16:01;;;;;;;2.53;0.75;;;13.60;57.80;;;;;;4995712;28;20043;-76
2022/04/10 05:18:26;;;;;;;3.35;0.65;;;13.70;57.80;;;;;;4979085;28;20046;-75
2022/04/10 05:20:52;;;;;;;1.83;0.40;;;13.70;57.90;;;;;;4978851;28;20178;-74
2022/04/10 05:23:19;;;;;;;2.33;0.50;;;13.60;57.80;;;;;;4978779;28;20136;-74
2022/04/10 05:25:45;;;;;;;3.13;0.32;;;13.60;57.40;;;;;;4996078;28;20046;-74
2022/04/10 05:28:11;;;;;;;1.20;0.30;;;13.60;57.60;;;;;;4995773;28;20060;-75
2022/04/10 05:30:37;;;;;;;2.28;0.40;;;13.60;57.80;;;;;;4989269;28;20046;-76
2022/04/10 05:33:03;;;;;;;5.93;0.63;;;13.60;57.60;;;;;;5015229;28;20042;-74
2022/04/10 05:35:29;;;;;;;3.50;0.40;;;13.60;57.80;;;;;;5015527;28;20053;-74
2022/04/10 05:37:55;;;;;;;4.65;0.80;;;13.60;57.70;;;;;;4998320;28;20088;-75
2022/04/10 05:40:22;;;;;;;6.22;1.05;;;13.50;57.70;;;;;;4998100;28;20057;-76
2022/04/10 05:42:47;;;;;;;2.38;0.60;;;13.60;57.90;;;;;;5015368;28;20042;-74
2022/04/10 05:45:14;;;;;;;4.28;0.50;;;13.60;58.00;;;;;;5015476;28;20430;-76
2022/04/10 05:47:41;;;;;;;3.58;0.35;;;13.70;58.00;;;;;;4997960;28;20088;-77
2022/04/10 05:50:10;;;;;;;2.25;0.73;;;13.70;57.90;;;;;;5015204;28;20050;-74
2022/04/10 05:52:41;;;;;;;1.48;0.40;;;13.80;57.70;;;;;;5014910;28;20530;-75
2022/04/10 05:55:08;;;;;;;6.03;0.70;;;13.80;57.60;;;;;;5015401;28;20121;-76
2022/04/10 05:57:34;;;;;;;1.67;0.45;;;13.80;57.60;;;;;;5015795;28;20045;-74
2022/04/10 06:00:00;;;;;;;5.15;0.93;;;13.90;57.50;;;;;;4994034;28;20057;-75
2022/04/10 06:02:26;;;;;;;2.97;0.50;;;13.90;57.50;;;;;;4992462;28;20042;-76
2022/04/10 06:04:52;;;;;;;9.35;0.77;;;13.80;57.30;;;;;;5011721;28;20054;-76
2022/04/10 06:07:17;;;;;;;4.03;0.60;;;13.90;57.30;;;;;;5014735;28;20491;-75
2022/04/10 06:09:43;;;;;;;7.40;0.77;;;13.90;57.10;;;;;;5014839;28;20042;-76
2022/04/10 06:12:09;;;;;;;3.55;0.40;;;14.00;56.70;;;;;;5015195;28;20046;-76
2022/04/10 06:14:35;;;;;;;3.38;0.70;;;14.00;56.00;;;;;;5014960;28;20041;-78
2022/04/10 06:17:01;;;;;;;6.97;0.88;;;14.10;55.60;;;;;;5015273;28;20061;-79
2022/04/10 06:19:27;;;;;;;8.35;1.15;;;14.10;55.30;;;;;;4980929;28;20053;-80
2022/04/10 06:21:53;;;;;;;11.93;1.20;;;14.10;54.70;;;;;;4997918;28;20038;-78
2022/04/10 06:24:21;;;;;;;7.15;0.98;;;14.10;54.20;;;;;;4980702;28;20044;-79
2022/04/10 06:26:50;;;;;;;3.55;0.85;;;14.10;54.10;;;;;;4997321;28;20480;-81
2022/04/10 06:29:16;;;;;;;18.08;1.60;;;14.10;53.90;;;;;;4997262;28;20038;-80
2022/04/10 06:31:45;;;;;;;14.38;1.90;;;14.10;53.80;;;;;;5007026;28;20108;-78
2022/04/10 06:34:11;;;;;;;7.07;0.93;;;14.10;53.70;;;;;;4983493;28;20037;-81
2022/04/10 06:36:40;;;;;;;10.57;1.13;;;14.20;53.80;;;;;;4982294;28;20038;-83
2022/04/10 06:39:06;;;;;;;18.13;2.30;;;14.20;54.60;;;;;;4996375;28;20061;-80
2022/04/10 06:44:18;;;;;;;16.88;9.25;;;14.30;55.80;;;;;;5001640;28;20065;-80
2022/04/10 06:46:44;;;;;;;20.27;4.28;;;14.30;57.00;;;;;;5017857;28;20050;-79
2022/04/10 06:49:12;;;;;;;11.85;3.50;;;14.40;56.60;;;;;;5017995;28;20468;-78
2022/04/10 06:51:38;;;;;;;16.33;7.78;;;14.50;55.80;;;;;;5000951;28;20057;-79
2022/04/10 06:54:04;;;;;;;20.52;8.23;;;14.50;55.70;;;;;;5000806;28;20038;-78
2022/04/10 06:56:30;;;;;;;10.77;4.60;;;14.50;55.00;;;;;;5018045;28;20034;-78
2022/04/10 06:58:56;;;;;;;8.80;3.97;;;14.50;54.80;;;;;;5017456;28;20049;-76
2022/04/10 07:01:22;;;;;;;8.82;2.95;;;14.50;54.10;;;;;;5018369;28;20508;-77
2022/04/10 07:03:48;;;;;;;11.48;2.75;;;14.50;53.70;;;;;;5000621;28;20069;-76
2022/04/10 07:06:13;;;;;;;5.72;2.00;;;14.50;53.10;;;;;;5018534;28;20054;-74
2022/04/10 07:08:48;;;;;;;7.47;2.70;;;14.50;52.80;;;;;;5017812;28;20132;-78
2022/04/10 07:11:14;;;;;;;7.90;4.10;;;14.50;53.40;;;;;;5000650;28;20416;-77
2022/04/10 07:13:39;;;;;;;10.77;2.45;;;14.50;53.90;;;;;;5017852;28;20042;-75
2022/04/10 07:16:05;;;;;;;8.93;2.53;;;14.60;53.50;;;;;;5017422;28;20421;-75
2022/04/10 07:18:31;;;;;;;31.98;4.07;;;14.60;53.70;;;;;;5017441;28;20100;-79
2022/04/10 07:20:56;;;;;;;14.98;2.22;;;14.60;53.50;;;;;;5017476;28;20038;-74
2022/04/10 07:26:10;;;;;;;8.07;1.88;;;14.70;53.70;;;;;;5015857;28;20041;-76
2022/04/10 07:28:37;;;;;;;10.65;1.45;;;14.80;52.90;;;;;;4985984;28;20054;-77
2022/04/10 07:31:10;;;;;;;8.93;1.52;;;14.90;52.80;;;;;;4998354;28;20410;-75
2022/04/10 07:33:38;;;;;;;8.55;1.65;;;15.00;52.10;;;;;;4990903;28;20414;-77
2022/04/10 07:36:13;;;;;;;11.85;1.73;;;15.00;52.40;;;;;;4999432;28;20034;-76
2022/04/10 07:38:41;;;;;;;8.80;1.77;;;15.20;52.60;;;;;;5007192;28;20061;-76
2022/04/10 07:41:07;;;;;;;5.18;1.73;;;15.20;52.80;;;;;;4979412;28;20442;-77
2022/04/10 07:43:33;;;;;;;7.65;1.70;;;15.20;53.40;;;;;;4964306;28;20053;-77
2022/04/10 07:48:43;;;;;;;6.10;1.83;;;15.30;53.10;;;;;;4997817;28;20046;-76
2022/04/10 07:51:08;;;;;;;10.68;2.05;;;15.20;53.90;;;;;;4997495;28;20058;-77
2022/04/10 07:53:34;;;;;;;8.93;1.60;;;15.20;55.60;;;;;;4997625;28;20462;-77
2022/04/10 07:56:00;;;;;;;5.32;1.13;;;15.40;56.00;;;;;;5005235;28;20046;-77
2022/04/10 07:58:26;;;;;;;12.98;1.35;;;15.60;55.50;;;;;;4984294;28;20049;-79
2022/04/10 08:00:52;;;;;;;7.78;1.10;;;15.70;54.80;;;;;;4984197;28;20335;-78
2022/04/10 08:03:18;;;;;;;7.38;1.58;;;15.90;53.80;;;;;;4979013;28;20057;-78
2022/04/10 08:05:43;;;;;;;7.55;1.20;;;16.00;53.20;;;;;;4979749;28;20035;-76
2022/04/10 08:08:12;;;;;;;5.72;1.10;;;16.10;52.20;;;;;;4980471;28;20038;-77
2022/04/10 08:10:39;;;;;;;5.72;1.08;;;16.20;51.50;;;;;;4996901;28;20054;-77
2022/04/10 08:13:05;;;;;;;5.35;0.77;;;16.40;51.20;;;;;;4998149;28;20456;-78
2022/04/10 08:15:30;;;;;;;5.47;1.20;;;16.40;50.90;;;;;;4999381;28;20082;-77
2022/04/10 08:17:56;;;;;;;5.10;1.05;;;16.60;51.00;;;;;;4997173;28;20085;-77
2022/04/10 08:20:23;;;;;;;2.58;0.98;;;16.60;51.00;;;;;;4996991;28;20093;-77
2022/04/10 08:22:53;;;;;;;3.90;1.20;;;16.70;51.00;;;;;;4997514;28;20134;-77
2022/04/10 08:25:23;;;;;;;6.22;1.45;;;16.80;51.20;;;;;;5006318;28;20466;-77
2022/04/10 08:27:49;;;;;;;4.65;1.30;;;16.80;51.30;;;;;;5003940;28;20064;-77
2022/04/10 08:30:15;;;;;;;3.03;0.95;;;16.80;51.50;;;;;;4979866;28;20046;-77
2022/04/10 08:32:43;;;;;;;5.78;1.42;;;16.80;51.60;;;;;;5014551;28;20072;-77
2022/04/10 08:35:11;;;;;;;7.15;1.70;;;16.80;51.70;;;;;;4984278;28;20050;-79
2022/04/10 08:37:37;;;;;;;7.07;1.30;;;16.60;53.10;;;;;;4993832;28;20540;-76
2022/04/10 08:40:04;;;;;;;5.05;1.35;;;16.60;52.90;;;;;;4996604;28;20069;-78
2022/04/10 08:42:30;;;;;;;7.00;1.10;;;16.60;52.80;;;;;;4979295;28;20129;-77
2022/04/10 08:44:57;;;;;;;5.30;1.10;;;16.70;52.80;;;;;;4996635;28;20447;-78
2022/04/10 08:47:23;;;;;;;7.53;1.27;;;16.70;52.70;;;;;;5002372;28;20053;-76
2022/04/10 08:49:50;;;;;;;9.43;1.60;;;16.70;54.10;;;;;;5014343;28;20050;-77
2022/04/10 08:52:20;;;;;;;6.05;1.08;;;16.50;56.40;;;;;;4998862;28;20069;-76
2022/04/10 08:54:46;;;;;;;5.57;0.82;;;16.60;54.80;;;;;;4994902;28;20363;-76
2022/04/10 08:57:12;;;;;;;7.05;1.50;;;16.60;54.30;;;;;;4982808;28;20100;-78
2022/04/10 08:59:44;;;;;;;4.97;0.75;;;16.70;54.00;;;;;;4992811;28;20417;-78
2022/04/10 09:02:11;;;;;;;3.63;0.77;;;16.70;53.80;;;;;;5005480;28;20034;-76
2022/04/10 09:04:41;;;;;;;3.42;0.95;;;16.80;53.70;;;;;;4977706;28;20060;-76
2022/04/10 09:07:08;;;;;;;6.25;1.05;;;16.80;53.60;;;;;;4995394;28;20094;-78
2022/04/10 09:09:35;;;;;;;6.40;1.17;;;16.80;53.60;;;;;;4995864;28;20082;-76
2022/04/10 09:12:05;;;;;;;7.88;1.20;;;16.90;53.40;;;;;;4995360;28;20062;-79
2022/04/10 09:14:40;;;;;;;8.30;0.93;;;16.90;53.00;;;;;;4978550;28;20062;-80
2022/04/10 09:17:22;;;;;;;9.90;1.48;;;16.90;53.90;;;;;;4978906;28;20128;-77
2022/04/10 09:19:53;;;;;;;7.90;1.75;;;16.90;54.60;;;;;;4995783;28;20450;-75
2022/04/10 09:22:26;;;;;;;14.20;2.00;;;16.70;57.80;;;;;;5010960;28;20105;-77
2022/04/10 09:25:09;;;;;;;12.48;2.15;;;16.80;59.40;;;;;;5013451;28;20125;-78
2022/04/10 09:27:38;;;;;;;14.38;2.28;;;16.70;60.70;;;;;;4962358;28;20049;-78
2022/04/10 09:30:06;;;;;;;8.30;1.35;;;16.80;60.30;;;;;;4996700;28;20052;-79
2022/04/10 09:32:39;;;;;;;8.85;1.05;;;16.80;59.10;;;;;;4975430;28;20061;-75
2022/04/10 09:35:05;;;;;;;5.17;1.00;;;16.90;58.50;;;;;;4996517;28;20074;-78
2022/04/10 09:37:42;;;;;;;12.55;2.25;;;16.90;57.40;;;;;;5011263;28;20476;-75
2022/04/10 09:40:30;;;;;;;6.90;1.23;;;17.00;57.30;;;;;;5015087;28;20140;-76
2022/04/10 09:43:07;;;;;;;9.68;1.35;;;16.80;54.00;;;;;;5014664;28;20353;-77
2022/04/10 09:45:41;;;;;;;9.75;1.27;;;17.00;56.80;;;;;;4997799;28;20050;-77
2022/04/10 09:48:29;;;;;;;13.60;1.70;;;17.10;56.80;;;;;;4995771;28;20473;-82
2022/04/10 09:51:00;;;;;;;9.90;2.38;;;17.30;56.30;;;;;;4978295;28;20049;-77
2022/04/10 09:53:29;;;;;;;12.25;2.03;;;17.30;54.80;;;;;;4987589;28;20086;-77
2022/04/10 09:55:54;;;;;;;11.30;1.80;;;16.90;55.30;;;;;;4979621;28;20058;-80
2022/04/10 09:58:25;;;;;;;11.43;1.92;;;16.60;56.40;;;;;;5015386;28;20353;-78
2022/04/10 10:00:55;;;;;;;5.50;1.50;;;16.50;57.40;;;;;;4982394;28;20096;-78
2022/04/10 10:03:28;;;;;;;7.50;1.17;;;16.30;57.60;;;;;;4990843;28;20041;-77
2022/04/10 10:06:00;;;;;;;10.07;1.27;;;16.30;58.00;;;;;;4978114;28;20484;-80
2022/04/10 10:08:27;;;;;;;10.82;1.77;;;16.30;58.60;;;;;;4985979;28;20108;-78
2022/04/10 10:10:59;;;;;;;10.48;2.05;;;16.30;58.30;;;;;;4962018;28;20053;-79
2022/04/10 10:13:34;;;;;;;7.57;1.20;;;16.20;58.80;;;;;;4983171;28;20038;-79
2022/04/10 10:16:00;;;;;;;7.40;1.98;;;16.20;59.20;;;;;;5014571;28;20049;-78
2022/04/10 10:18:27;;;;;;;7.93;1.73;;;16.30;59.30;;;;;;5015192;28;20034;-78
2022/04/10 10:20:53;;;;;;;7.57;1.63;;;16.50;59.60;;;;;;5018555;28;20045;-78
2022/04/10 10:23:22;;;;;;;9.45;1.35;;;16.60;58.80;;;;;;5018705;28;20108;-78
2022/04/10 10:26:25;;;;;;;10.02;1.50;;;16.80;58.60;;;;;;4988201;28;20074;-74
2022/04/10 10:29:26;;;;;;;7.40;1.13;;;17.00;58.50;;;;;;4998371;28;20046;-82
2022/04/10 10:32:07;;;;;;;10.32;1.73;;;17.20;57.80;;;;;;4998305;28;20038;-77
2022/04/10 10:34:34;;;;;;;8.50;1.60;;;17.30;56.00;;;;;;5002770;28;20042;-76
2022/04/10 10:37:03;;;;;;;4.22;1.00;;;17.20;55.50;;;;;;5018012;28;20385;-75
2022/04/10 10:39:43;;;;;;;7.32;1.48;;;17.10;55.30;;;;;;5017783;28;20488;-76
2022/04/10 10:42:11;;;;;;;7.10;1.20;;;17.00;55.50;;;;;;5001127;28;20054;-75
2022/04/10 10:44:43;;;;;;;10.85;1.38;;;16.80;55.70;;;;;;4996978;28;20117;-77
2022/04/10 10:47:17;;;;;;;4.25;1.02;;;16.90;56.50;;;;;;4990547;28;20105;-76
2022/04/10 10:49:47;;;;;;;4.63;0.90;;;17.10;56.10;;;;;;4986328;28;20097;-75
2022/04/10 10:52:15;;;;;;;6.18;1.10;;;17.30;55.50;;;;;;4989449;28;20038;-77
2022/04/10 10:54:44;;;;;;;5.28;1.10;;;17.50;55.00;;;;;;5004608;28;20112;-78
2022/04/10 10:57:27;;;;;;;6.75;1.10;;;17.60;54.60;;;;;;5008143;28;20053;-77
2022/04/10 11:00:04;;;;;;;6.38;0.98;;;17.80;54.20;;;;;;4993099;28;20540;-77
2022/04/10 11:02:37;;;;;;;3.92;0.90;;;17.90;54.00;;;;;;4992418;28;20108;-78
2022/04/10 11:05:33;;;;;;;5.07;0.82;;;18.00;54.10;;;;;;5000204;28;20064;-77
2022/04/10 11:08:10;;;;;;;3.22;0.85;;;18.00;53.90;;;;;;4997557;28;20046;-78
2022/04/10 11:10:53;;;;;;;4.88;0.82;;;18.00;53.90;;;;;;4998082;28;20119;-76
2022/04/10 11:13:19;;;;;;;5.38;1.08;;;18.00;53.80;;;;;;5005984;28;20508;-76
2022/04/10 11:15:52;;;;;;;4.60;1.10;;;18.10;53.90;;;;;;4994998;28;20133;-78
2022/04/10 11:18:23;;;;;;;3.22;0.73;;;18.10;53.80;;;;;;5016265;28;20073;-78
2022/04/10 11:20:54;;;;;;;4.00;1.00;;;18.00;53.70;;;;;;5014412;28;20050;-77
2022/04/10 11:23:20;;;;;;;3.22;0.80;;;18.00;53.70;;;;;;5011740;28;20060;-77
2022/04/10 11:25:52;;;;;;;3.90;0.70;;;18.00;53.80;;;;;;5017234;28;20394;-76
2022/04/10 11:28:17;;;;;;;3.65;0.77;;;18.00;53.70;;;;;;5010856;28;20061;-77
2022/04/10 11:30:46;;;;;;;3.03;1.10;;;18.00;53.90;;;;;;5015789;28;20038;-75
2022/04/10 11:33:13;;;;;;;4.68;0.70;;;18.00;53.80;;;;;;5016098;28;20045;-77
2022/04/10 11:35:40;;;;;;;5.05;0.80;;;18.00;53.90;;;;;;5008201;28;20061;-75
2022/04/10 11:38:12;;;;;;;2.67;0.90;;;18.00;54.00;;;;;;5011386;28;20037;-77
2022/04/10 11:40:47;;;;;;;2.83;0.65;;;17.90;54.00;;;;;;5013454;28;20054;-75
2022/04/10 11:43:16;;;;;;;2.65;1.05;;;18.00;53.90;;;;;;4994274;28;20046;-77
2022/04/10 11:45:43;;;;;;;2.65;0.73;;;18.00;54.00;;;;;;5015682;28;20073;-77
2022/04/10 11:48:10;;;;;;;4.07;0.77;;;18.00;53.80;;;;;;5012380;28;20453;-79
2022/04/10 11:50:37;;;;;;;3.33;0.80;;;17.60;51.30;;;;;;4999377;28;20050;-77
2022/04/10 11:53:08;;;;;;;2.50;0.70;;;17.40;52.40;;;;;;5022011;28;20065;-76
2022/04/10 11:55:38;;;;;;;5.75;1.30;;;17.30;52.70;;;;;;4997386;28;20053;-77
2022/04/10 11:58:21;;;;;;;6.50;1.20;;;17.20;54.30;;;;;;5006993;28;20049;-78
2022/04/10 12:01:05;;;;;;;3.33;0.63;;;17.20;55.50;;;;;;5016402;28;20358;-75
2022/04/10 12:03:31;;;;;;;5.70;0.60;;;17.30;53.50;;;;;;4993764;28;20112;-77
2022/04/10 12:05:57;;;;;;;6.35;1.00;;;17.30;55.30;;;;;;4998315;28;20109;-78
2022/04/10 12:08:25;;;;;;;5.75;1.35;;;17.40;55.40;;;;;;5016855;28;20053;-76
2022/04/10 12:10:55;;;;;;;5.22;0.75;;;17.60;54.80;;;;;;4999798;28;20045;-77
2022/04/10 12:13:21;;;;;;;4.20;0.63;;;17.70;54.50;;;;;;5016561;28;20061;-76
2022/04/10 12:16:01;;;;;;;2.35;0.75;;;17.80;54.40;;;;;;5016140;28;20050;-77
2022/04/10 12:18:28;;;;;;;6.45;1.05;;;17.90;54.40;;;;;;4999661;28;20065;-77
2022/04/10 12:21:04;;;;;;;4.13;0.70;;;17.90;54.30;;;;;;5016232;28;20464;-77
2022/04/10 12:23:30;;;;;;;2.95;0.85;;;17.90;53.20;;;;;;5016469;28;20052;-77
2022/04/10 12:25:57;;;;;;;3.83;0.93;;;17.90;53.70;;;;;;4999105;28;20038;-79
2022/04/10 12:28:23;;;;;;;5.40;1.02;;;17.90;53.60;;;;;;5016400;28;20081;-77
2022/04/10 12:30:50;;;;;;;5.25;1.13;;;17.80;54.50;;;;;;5016220;28;20395;-79
2022/04/10 12:33:18;;;;;;;4.15;1.00;;;17.80;54.70;;;;;;5016274;28;20115;-80
2022/04/10 12:35:44;;;;;;;4.22;1.00;;;17.90;54.40;;;;;;4995286;28;20050;-78
2022/04/10 12:38:17;;;;;;;5.00;0.82;;;18.00;53.80;;;;;;4979527;28;20077;-79
2022/04/10 12:40:44;;;;;;;4.25;0.95;;;18.00;53.50;;;;;;4994056;28;20120;-80
2022/04/10 12:43:12;;;;;;;4.68;0.85;;;18.00;53.10;;;;;;4978910;28;20512;-78
2022/04/10 12:45:39;;;;;;;3.67;0.68;;;18.10;52.90;;;;;;4996054;28;20077;-78
2022/04/10 12:48:26;;;;;;;4.85;0.55;;;18.10;52.60;;;;;;4996301;28;20058;-80
2022/04/10 12:51:08;;;;;;;3.13;0.80;;;18.00;52.60;;;;;;4982002;28;20122;-77
2022/04/10 12:53:35;;;;;;;3.25;0.90;;;18.10;52.60;;;;;;5011587;28;20061;-79
2022/04/10 12:56:01;;;;;;;4.43;0.68;;;18.00;51.50;;;;;;4995945;28;20039;-78
2022/04/10 12:58:42;;;;;;;3.25;0.75;;;17.80;51.50;;;;;;4996578;28;20060;-80